Time;durP1;ratioP1;P1;durP2;ratioP2;P2;SDS_P1;SDS_P2;PMS_P1;PMS_P2;Temp;Humidity;BMP_temperature;BMP_pressure;BME280_temperature;BME280_humidity;BME280_pressure;Samples;Min_cycle;Max_cycle;Signal;HPM_P1;HPM_P2
2022/12/11 00:00:25;;;;;;;205.07;29.77;;;1.40;99.90;;;;;;4990910;28;20401;-86
2022/12/11 00:02:51;;;;;;;192.25;29.33;;;1.40;99.90;;;;;;4977006;28;20094;-86
2022/12/11 00:05:16;;;;;;;220.10;29.98;;;1.40;99.90;;;;;;4975366;28;20027;-87
2022/12/11 00:07:42;;;;;;;182.30;27.70;;;1.40;99.90;;;;;;4975157;28;20026;-87
2022/12/11 00:10:08;;;;;;;180.65;29.33;;;1.40;99.90;;;;;;4975391;28;20091;-87
2022/12/11 00:12:33;;;;;;;173.70;26.95;;;1.40;99.90;;;;;;4975414;28;20383;-87
2022/12/11 00:14:59;;;;;;;165.95;26.85;;;1.40;99.90;;;;;;4982267;28;20031;-87
2022/12/11 00:17:25;;;;;;;199.48;30.83;;;1.40;99.90;;;;;;4975867;28;20035;-86
2022/12/11 00:19:50;;;;;;;189.70;28.60;;;1.40;99.90;;;;;;4975472;28;20031;-87
2022/12/11 00:22:20;;;;;;;177.02;27.85;;;1.40;99.90;;;;;;4991657;28;20030;-87
2022/12/11 00:24:46;;;;;;;171.65;27.52;;;1.50;99.90;;;;;;4958715;28;20062;-86
2022/12/11 00:27:11;;;;;;;165.05;25.63;;;1.40;99.90;;;;;;4975194;28;20062;-87
2022/12/11 00:29:37;;;;;;;168.27;26.55;;;1.40;99.90;;;;;;4991652;28;20038;-87
2022/12/11 00:32:03;;;;;;;169.20;26.85;;;1.40;99.90;;;;;;4991476;28;20035;-87
2022/12/11 00:34:28;;;;;;;163.20;27.40;;;1.40;99.90;;;;;;4991744;28;20045;-87
2022/12/11 00:36:54;;;;;;;164.20;28.33;;;1.40;99.90;;;;;;4975368;28;20109;-87
2022/12/11 00:39:20;;;;;;;160.77;26.95;;;1.50;99.90;;;;;;4975197;28;20126;-87
2022/12/11 00:41:45;;;;;;;152.73;27.23;;;1.50;99.90;;;;;;4975029;28;20459;-87
2022/12/11 00:44:11;;;;;;;152.82;26.20;;;1.50;99.90;;;;;;4976093;28;20035;-87
2022/12/11 00:46:36;;;;;;;160.63;26.23;;;1.50;99.90;;;;;;4976753;28;20034;-87
2022/12/11 00:49:02;;;;;;;166.65;28.27;;;1.50;99.90;;;;;;4977368;28;20027;-88
2022/12/11 00:51:28;;;;;;;176.15;28.10;;;1.60;99.90;;;;;;4977912;28;20096;-87
2022/12/11 00:53:53;;;;;;;154.23;27.35;;;1.60;99.90;;;;;;4959781;28;20035;-87
2022/12/11 00:56:21;;;;;;;169.50;30.98;;;1.60;99.90;;;;;;4991581;28;20070;-87
2022/12/11 00:58:49;;;;;;;168.40;26.38;;;1.60;99.90;;;;;;4991244;28;20029;-87
2022/12/11 01:01:18;;;;;;;158.57;28.08;;;1.60;99.90;;;;;;4958772;28;20061;-88
2022/12/11 01:03:44;;;;;;;155.57;28.23;;;1.60;99.90;;;;;;4975031;28;20046;-88
2022/12/11 01:06:30;;;;;;;142.68;25.50;;;1.60;99.90;;;;;;4975859;28;20031;-87
2022/12/11 01:11:42;;;;;;;150.93;25.70;;;1.60;99.90;;;;;;5011057;28;20465;-87
2022/12/11 01:14:11;;;;;;;163.60;27.65;;;1.60;99.90;;;;;;4981521;28;20056;-88
2022/12/11 01:16:37;;;;;;;145.02;27.15;;;1.60;99.90;;;;;;5014619;28;20087;-88
2022/12/11 01:19:03;;;;;;;159.77;27.35;;;1.60;99.90;;;;;;4997707;28;20108;-87
2022/12/11 01:21:29;;;;;;;152.30;27.30;;;1.60;99.90;;;;;;4997636;28;20018;-87
2022/12/11 01:23:54;;;;;;;170.48;27.58;;;1.60;99.90;;;;;;5014773;28;20045;-88
2022/12/11 01:26:20;;;;;;;145.88;27.20;;;1.60;99.90;;;;;;4993969;28;20022;-87
2022/12/11 01:28:49;;;;;;;148.93;27.63;;;1.60;99.90;;;;;;4993599;28;20031;-87
2022/12/11 01:31:16;;;;;;;160.38;28.75;;;1.60;99.90;;;;;;4977881;28;20475;-87
2022/12/11 01:33:42;;;;;;;151.95;27.50;;;1.70;99.90;;;;;;4977855;28;20537;-87
2022/12/11 01:36:08;;;;;;;162.63;24.92;;;1.60;99.90;;;;;;4977485;28;20065;-88
2022/12/11 01:38:34;;;;;;;161.77;29.27;;;1.60;99.90;;;;;;4997945;28;20054;-87
2022/12/11 01:41:02;;;;;;;170.73;28.40;;;1.60;99.90;;;;;;4981458;28;20030;-87
2022/12/11 01:43:28;;;;;;;164.30;27.38;;;1.60;99.90;;;;;;4981821;28;20028;-87
2022/12/11 01:45:53;;;;;;;169.93;29.85;;;1.60;99.90;;;;;;4997725;28;20453;-87
2022/12/11 01:48:24;;;;;;;178.68;27.63;;;1.60;99.90;;;;;;4981526;28;20121;-88
2022/12/11 01:50:54;;;;;;;168.70;25.83;;;1.60;99.90;;;;;;4981444;28;20032;-88
2022/12/11 01:53:23;;;;;;;202.43;29.25;;;1.60;99.90;;;;;;4999381;28;20300;-87
2022/12/11 01:55:52;;;;;;;187.20;27.33;;;1.70;99.90;;;;;;4986295;28;20098;-87
2022/12/11 01:58:21;;;;;;;196.93;27.20;;;1.70;99.90;;;;;;4999783;28;20049;-88
2022/12/11 02:00:47;;;;;;;159.15;26.58;;;1.60;99.90;;;;;;4980657;28;20093;-87
2022/12/11 02:03:13;;;;;;;188.18;27.67;;;1.70;99.90;;;;;;4981572;28;20114;-87
2022/12/11 02:05:38;;;;;;;181.30;28.73;;;1.70;99.90;;;;;;4981719;28;20160;-88
2022/12/11 02:08:06;;;;;;;201.15;29.33;;;1.70;99.90;;;;;;4998615;28;20034;-88
2022/12/11 02:10:54;;;;;;;222.88;29.25;;;1.60;99.90;;;;;;4981052;28;20055;-88
2022/12/11 02:13:34;;;;;;;211.48;29.48;;;1.70;99.90;;;;;;4999156;28;20035;-88
2022/12/11 02:16:12;;;;;;;214.93;32.00;;;1.70;99.90;;;;;;4998841;28;20026;-87
2022/12/11 02:18:58;;;;;;;245.88;29.77;;;1.70;99.90;;;;;;4980838;28;20041;-87
2022/12/11 02:21:37;;;;;;;257.60;32.10;;;1.70;99.90;;;;;;4981463;28;20019;-86
2022/12/11 02:24:31;;;;;;;250.02;29.20;;;1.70;99.90;;;;;;4986981;28;20025;-88
2022/12/11 02:27:36;;;;;;;266.23;31.10;;;1.60;99.90;;;;;;4991759;28;20054;-88
2022/12/11 02:30:09;;;;;;;263.27;30.42;;;1.60;99.90;;;;;;4997911;28;20030;-88
2022/12/11 02:32:43;;;;;;;274.73;31.50;;;1.60;99.90;;;;;;4996606;28;20034;-88
2022/12/11 02:35:12;;;;;;;261.27;30.50;;;1.70;99.90;;;;;;4980862;28;20027;-88
2022/12/11 02:37:42;;;;;;;285.77;31.10;;;1.60;99.90;;;;;;4996945;28;20054;-88
2022/12/11 02:40:12;;;;;;;284.58;32.47;;;1.70;99.90;;;;;;4980819;28;20526;-87
2022/12/11 02:42:41;;;;;;;243.13;28.45;;;1.70;99.90;;;;;;4980801;28;20434;-88
2022/12/11 02:45:08;;;;;;;261.70;31.13;;;1.60;99.90;;;;;;4996411;28;20441;-87
2022/12/11 02:47:36;;;;;;;254.63;31.75;;;1.70;99.90;;;;;;4980284;28;20517;-87
2022/12/11 02:50:06;;;;;;;275.38;33.17;;;1.70;99.90;;;;;;4979684;28;20041;-88
2022/12/11 02:52:33;;;;;;;267.85;31.63;;;1.70;99.90;;;;;;4980854;28;20482;-89
2022/12/11 02:55:01;;;;;;;294.83;34.28;;;1.60;99.90;;;;;;4981434;28;20391;-88
2022/12/11 02:57:34;;;;;;;283.45;32.45;;;1.70;99.90;;;;;;5000414;28;20483;-88
2022/12/11 03:00:00;;;;;;;280.05;32.72;;;1.60;99.90;;;;;;4996857;28;20126;-88
2022/12/11 03:02:26;;;;;;;277.17;33.75;;;1.60;99.90;;;;;;4997037;28;20034;-88
2022/12/11 03:04:52;;;;;;;280.55;33.20;;;1.60;99.90;;;;;;4981473;28;20030;-87
2022/12/11 03:07:25;;;;;;;279.70;32.03;;;1.60;99.90;;;;;;4981717;28;20459;-88
2022/12/11 03:09:51;;;;;;;212.30;30.90;;;1.70;99.90;;;;;;4991481;28;20034;-91
2022/12/11 03:12:29;;;;;;;262.42;31.65;;;1.70;99.90;;;;;;5003189;28;20093;-88
2022/12/11 03:14:59;;;;;;;266.58;31.65;;;1.70;99.90;;;;;;4997782;28;20027;-88
2022/12/11 03:17:34;;;;;;;251.43;31.30;;;1.70;99.90;;;;;;4980973;28;20500;-87
2022/12/11 03:20:06;;;;;;;268.88;34.10;;;1.70;99.90;;;;;;4996340;28;20069;-87
2022/12/11 03:22:32;;;;;;;240.70;30.45;;;1.70;99.90;;;;;;4998079;28;20042;-87
2022/12/11 03:25:36;;;;;;;223.50;31.13;;;1.70;99.90;;;;;;4996134;28;20099;-87
2022/12/11 03:28:48;;;;;;;209.95;30.25;;;1.70;99.90;;;;;;4956882;29;20023;-86
2022/12/11 03:31:25;;;;;;;238.75;32.92;;;1.80;99.90;;;;;;4944967;29;20091;-85
2022/12/11 03:33:55;;;;;;;220.55;31.67;;;1.80;99.90;;;;;;4942451;29;20036;-87
2022/12/11 03:36:30;;;;;;;215.13;31.70;;;1.80;99.90;;;;;;4977836;28;20042;-86
2022/12/11 03:39:01;;;;;;;214.50;29.52;;;1.80;99.90;;;;;;5000168;28;20031;-86
2022/12/11 03:41:29;;;;;;;212.23;31.58;;;1.80;99.90;;;;;;4980418;28;20026;-86
2022/12/11 03:43:57;;;;;;;233.10;30.70;;;1.80;99.90;;;;;;4979287;28;20027;-87
2022/12/11 03:46:30;;;;;;;214.35;31.33;;;1.90;99.90;;;;;;4979659;28;20026;-87
2022/12/11 03:49:00;;;;;;;226.95;32.60;;;1.90;99.90;;;;;;4980052;28;20015;-87
2022/12/11 03:51:29;;;;;;;202.52;30.00;;;1.90;99.90;;;;;;4979857;28;20033;-87
2022/12/11 03:53:55;;;;;;;221.85;33.30;;;1.80;99.90;;;;;;4979133;28;20117;-87
2022/12/11 03:56:23;;;;;;;198.20;30.92;;;1.90;99.90;;;;;;4995366;28;20072;-86
2022/12/11 03:58:48;;;;;;;193.75;29.88;;;1.80;99.90;;;;;;4995287;28;20089;-87
2022/12/11 04:01:14;;;;;;;198.68;30.95;;;1.90;99.90;;;;;;4979058;28;20470;-86
2022/12/11 04:03:40;;;;;;;186.93;30.58;;;1.80;99.90;;;;;;4978864;28;20031;-87
2022/12/11 04:06:06;;;;;;;182.13;29.10;;;1.90;99.90;;;;;;4978922;28;20030;-86
2022/12/11 04:08:32;;;;;;;201.52;29.35;;;1.90;99.90;;;;;;4980539;28;20031;-87
2022/12/11 04:13:41;;;;;;;194.27;32.03;;;1.90;99.90;;;;;;4998271;28;20134;-86
2022/12/11 04:16:07;;;;;;;171.10;30.05;;;1.90;99.90;;;;;;4980967;28;20058;-86
2022/12/11 04:24:15;;;;;;;166.18;29.33;;;1.90;99.90;;;;;;4995023;28;20149;-87
2022/12/11 04:26:43;;;;;;;181.85;31.38;;;2.00;99.90;;;;;;4978332;28;20019;-86
2022/12/11 04:29:08;;;;;;;160.00;28.73;;;2.00;99.90;;;;;;4978644;28;20080;-86
2022/12/11 04:31:34;;;;;;;170.60;29.83;;;2.00;99.90;;;;;;4979008;28;20455;-86
2022/12/11 04:34:00;;;;;;;158.45;32.50;;;2.00;99.90;;;;;;5000343;28;20027;-87
2022/12/11 04:36:25;;;;;;;145.82;28.80;;;2.00;99.90;;;;;;4980593;28;20382;-86
2022/12/11 04:38:51;;;;;;;148.75;28.40;;;2.00;99.90;;;;;;4995013;28;20056;-86
2022/12/11 04:41:17;;;;;;;143.10;30.10;;;2.10;99.90;;;;;;4978117;28;20359;-86
2022/12/11 04:43:46;;;;;;;129.73;27.65;;;2.00;99.90;;;;;;4994407;28;20482;-86
2022/12/11 04:46:14;;;;;;;138.00;31.27;;;2.00;99.90;;;;;;4978277;28;20030;-86
2022/12/11 04:48:40;;;;;;;127.00;28.90;;;2.10;99.90;;;;;;4978787;28;20082;-86
2022/12/11 04:51:06;;;;;;;133.25;29.98;;;2.10;99.90;;;;;;4994427;28;20039;-86
2022/12/11 04:53:32;;;;;;;123.60;31.02;;;2.10;99.90;;;;;;4978300;28;20073;-86
2022/12/11 04:56:04;;;;;;;114.68;26.95;;;2.10;99.90;;;;;;4994595;28;20050;-86
2022/12/11 04:58:30;;;;;;;112.93;26.45;;;2.10;99.90;;;;;;4980490;28;20391;-86
2022/12/11 05:00:56;;;;;;;123.75;29.92;;;2.10;99.90;;;;;;4979392;28;20100;-86
2022/12/11 05:03:21;;;;;;;116.25;29.45;;;2.20;99.90;;;;;;4997295;28;20014;-87
2022/12/11 05:05:49;;;;;;;96.15;26.73;;;2.10;99.90;;;;;;5014067;28;20034;-86
2022/12/11 05:08:15;;;;;;;96.45;28.67;;;2.20;99.90;;;;;;4983913;28;20031;-86
2022/12/11 05:10:41;;;;;;;97.78;28.13;;;2.20;99.90;;;;;;4978143;28;20517;-86
2022/12/11 05:13:07;;;;;;;96.18;26.42;;;2.20;99.90;;;;;;4978319;28;20065;-87
2022/12/11 05:15:32;;;;;;;116.60;27.20;;;2.20;99.90;;;;;;4978052;28;20077;-86
2022/12/11 05:17:58;;;;;;;93.70;27.48;;;2.20;99.90;;;;;;4977685;28;20394;-86
2022/12/11 05:20:24;;;;;;;85.03;25.85;;;2.20;99.90;;;;;;4981048;28;20037;-86
2022/12/11 05:22:49;;;;;;;80.70;25.48;;;2.20;99.90;;;;;;4981009;28;20040;-86
2022/12/11 05:25:15;;;;;;;95.32;27.38;;;2.20;99.90;;;;;;5013678;28;20528;-86
2022/12/11 05:27:40;;;;;;;93.22;27.98;;;2.20;99.90;;;;;;4964973;28;20486;-86
2022/12/11 05:30:07;;;;;;;88.60;25.83;;;2.20;99.90;;;;;;4964726;28;20030;-89
2022/12/11 05:32:33;;;;;;;94.45;28.17;;;2.20;99.90;;;;;;4996967;28;20088;-86
2022/12/11 05:34:59;;;;;;;88.32;25.25;;;2.20;99.90;;;;;;4997340;28;20029;-86
2022/12/11 05:37:26;;;;;;;93.97;26.15;;;2.30;99.90;;;;;;4964811;28;20045;-86
2022/12/11 05:39:52;;;;;;;97.43;27.15;;;2.20;99.90;;;;;;4997179;28;20026;-86
2022/12/11 05:42:17;;;;;;;93.63;26.90;;;2.20;99.90;;;;;;4997357;28;20113;-86
2022/12/11 05:44:43;;;;;;;102.22;28.25;;;2.20;99.90;;;;;;5013387;28;20528;-86
2022/12/11 05:47:09;;;;;;;98.88;25.95;;;2.20;99.90;;;;;;4964781;28;20022;-88
2022/12/11 05:49:35;;;;;;;81.57;25.35;;;2.10;99.90;;;;;;4981470;28;20390;-86
2022/12/11 05:52:01;;;;;;;72.35;24.92;;;2.20;99.90;;;;;;4981589;28;20041;-86
2022/12/11 05:54:26;;;;;;;75.18;26.40;;;2.10;99.90;;;;;;5013397;28;20061;-86
2022/12/11 05:56:52;;;;;;;83.13;27.02;;;2.20;99.90;;;;;;4981056;28;20026;-86
2022/12/11 05:59:18;;;;;;;78.15;25.65;;;2.20;99.90;;;;;;4964992;28;20022;-86
2022/12/11 06:01:44;;;;;;;79.70;26.08;;;2.10;99.90;;;;;;4997795;28;20033;-86
2022/12/11 06:04:12;;;;;;;88.65;27.02;;;2.20;99.90;;;;;;4999389;28;20041;-86
2022/12/11 06:06:39;;;;;;;80.93;25.85;;;2.20;99.90;;;;;;4982370;28;20374;-86
2022/12/11 06:09:06;;;;;;;81.43;25.55;;;2.20;99.90;;;;;;5014122;28;20026;-87
2022/12/11 06:11:33;;;;;;;87.03;26.75;;;2.20;99.90;;;;;;4958349;28;20082;-86
2022/12/11 06:14:00;;;;;;;64.68;23.45;;;2.20;99.90;;;;;;4960376;28;20035;-86
2022/12/11 06:16:25;;;;;;;56.30;22.17;;;2.20;99.90;;;;;;4994860;28;20022;-86
2022/12/11 06:18:51;;;;;;;62.28;23.27;;;2.20;99.90;;;;;;4962535;28;20030;-88
2022/12/11 06:21:20;;;;;;;63.70;23.92;;;2.20;99.90;;;;;;4994858;28;20394;-86
2022/12/11 06:23:48;;;;;;;59.20;22.88;;;2.20;99.90;;;;;;4996908;28;20026;-86
2022/12/11 06:26:15;;;;;;;57.53;22.45;;;2.20;99.90;;;;;;4999556;28;20485;-88
2022/12/11 06:28:41;;;;;;;56.97;21.35;;;2.20;99.90;;;;;;5001276;28;20022;-85
2022/12/11 06:31:07;;;;;;;55.38;21.65;;;2.30;99.90;;;;;;5001457;28;20090;-86
2022/12/11 06:33:33;;;;;;;56.10;21.10;;;2.20;99.90;;;;;;5001314;28;20116;-86
2022/12/11 06:36:08;;;;;;;54.58;23.02;;;2.20;99.90;;;;;;5002281;28;20058;-86
2022/12/11 06:38:34;;;;;;;50.33;19.73;;;2.20;99.90;;;;;;4985644;28;20026;-86
2022/12/11 06:41:03;;;;;;;57.97;22.15;;;2.20;99.90;;;;;;5003414;28;20026;-85
2022/12/11 06:43:29;;;;;;;54.35;21.00;;;2.30;99.90;;;;;;4988638;28;20034;-86
2022/12/11 06:45:55;;;;;;;48.65;20.55;;;2.20;99.90;;;;;;5004173;28;20030;-86
2022/12/11 06:48:21;;;;;;;52.55;21.15;;;2.20;99.90;;;;;;4971510;28;20060;-86
2022/12/11 06:50:47;;;;;;;55.03;21.23;;;2.20;99.90;;;;;;5000067;28;20030;-85
2022/12/11 06:53:14;;;;;;;54.13;20.52;;;2.20;99.90;;;;;;4985530;28;20044;-86
2022/12/11 06:55:40;;;;;;;51.63;19.65;;;2.20;99.90;;;;;;5018621;28;20026;-87
2022/12/11 06:58:07;;;;;;;47.95;18.70;;;2.20;99.90;;;;;;5018673;28;20011;-86
2022/12/11 07:00:35;;;;;;;47.72;20.60;;;2.20;99.90;;;;;;5001935;28;20066;-85
2022/12/11 07:03:00;;;;;;;47.45;19.92;;;2.20;99.90;;;;;;5016725;28;20018;-86
2022/12/11 07:05:26;;;;;;;41.88;18.08;;;2.10;99.90;;;;;;4997820;28;20046;-85
2022/12/11 07:07:53;;;;;;;39.50;17.48;;;2.10;99.90;;;;;;4985277;28;20053;-85
2022/12/11 07:10:19;;;;;;;41.95;18.42;;;2.10;99.90;;;;;;4983346;28;20057;-86
2022/12/11 07:12:45;;;;;;;38.67;16.88;;;2.00;99.90;;;;;;4999538;28;20504;-85
2022/12/11 07:15:11;;;;;;;39.88;18.45;;;2.00;99.90;;;;;;5000933;28;20125;-86
2022/12/11 07:17:37;;;;;;;39.00;17.13;;;2.00;99.90;;;;;;4967284;28;20060;-86
2022/12/11 07:20:03;;;;;;;40.38;18.20;;;2.00;99.90;;;;;;4985134;28;20085;-86
2022/12/11 07:22:28;;;;;;;41.05;17.25;;;2.00;99.90;;;;;;4999868;28;20026;-86
2022/12/11 07:24:54;;;;;;;35.70;17.33;;;2.00;99.90;;;;;;5015654;28;20044;-86
2022/12/11 07:27:20;;;;;;;35.70;17.80;;;2.00;99.90;;;;;;4985115;28;20018;-86
2022/12/11 07:29:45;;;;;;;33.95;16.58;;;2.10;99.90;;;;;;4973245;28;20531;-86
2022/12/11 07:32:11;;;;;;;37.15;17.45;;;2.10;99.90;;;;;;4980233;28;20038;-86
2022/12/11 07:34:37;;;;;;;36.45;17.10;;;2.10;99.90;;;;;;4965025;28;20026;-86
2022/12/11 07:37:02;;;;;;;38.80;17.77;;;2.10;99.90;;;;;;4981934;28;20030;-85
2022/12/11 07:39:28;;;;;;;39.78;19.10;;;2.10;99.90;;;;;;4999445;28;20026;-86
2022/12/11 07:41:54;;;;;;;36.75;18.60;;;2.10;99.90;;;;;;4980333;28;20030;-86
2022/12/11 07:44:19;;;;;;;34.30;17.60;;;2.10;99.90;;;;;;4996254;28;20034;-86
2022/12/11 07:46:47;;;;;;;35.90;17.60;;;2.10;99.90;;;;;;4995360;28;20053;-86
2022/12/11 07:49:12;;;;;;;37.60;17.58;;;2.10;99.90;;;;;;4979943;28;20471;-86
2022/12/11 07:51:39;;;;;;;33.72;16.92;;;2.10;99.90;;;;;;4979325;28;20117;-86
2022/12/11 07:54:13;;;;;;;33.88;17.40;;;2.10;99.90;;;;;;4963398;28;20058;-86
2022/12/11 07:56:39;;;;;;;35.45;17.65;;;2.10;99.90;;;;;;4996458;28;20100;-87
2022/12/11 07:59:05;;;;;;;35.05;16.83;;;2.10;99.90;;;;;;4979976;28;20042;-85
2022/12/11 08:01:35;;;;;;;33.75;16.55;;;2.10;99.90;;;;;;4995683;28;20027;-86
2022/12/11 08:04:02;;;;;;;31.27;15.75;;;2.10;99.90;;;;;;4995498;28;20026;-86
2022/12/11 08:06:34;;;;;;;32.20;15.98;;;2.20;99.90;;;;;;4995636;28;20023;-87
2022/12/11 08:09:01;;;;;;;33.38;15.88;;;2.10;99.90;;;;;;4996668;28;20022;-85
2022/12/11 08:11:28;;;;;;;28.80;14.30;;;2.10;99.90;;;;;;4979247;28;20475;-86
2022/12/11 08:13:54;;;;;;;27.40;13.52;;;2.20;99.90;;;;;;4979288;28;20043;-86
2022/12/11 08:16:21;;;;;;;28.38;14.45;;;2.20;99.90;;;;;;4995713;28;20034;-86
2022/12/11 08:18:47;;;;;;;28.52;14.40;;;2.10;99.90;;;;;;4979061;28;20054;-85
2022/12/11 08:21:17;;;;;;;31.58;16.13;;;2.10;99.90;;;;;;4995099;28;20460;-86
2022/12/11 08:23:43;;;;;;;29.00;15.10;;;2.10;99.90;;;;;;4994569;28;20030;-85
2022/12/11 08:26:13;;;;;;;29.80;14.88;;;2.10;99.90;;;;;;4962717;28;20320;-86
2022/12/11 08:28:39;;;;;;;31.83;15.68;;;2.10;99.90;;;;;;4994743;28;20063;-85
2022/12/11 08:31:12;;;;;;;28.20;14.90;;;2.10;99.90;;;;;;4978873;28;20034;-85
2022/12/11 08:33:40;;;;;;;26.88;13.77;;;2.10;99.90;;;;;;4995368;28;20033;-85
2022/12/11 08:36:09;;;;;;;29.77;13.98;;;2.10;99.90;;;;;;4978506;28;20058;-85
2022/12/11 08:38:35;;;;;;;32.03;16.10;;;2.10;99.90;;;;;;4994348;28;20045;-86
2022/12/11 08:41:30;;;;;;;30.00;15.23;;;2.10;99.90;;;;;;4994488;28;20019;-86
2022/12/11 08:43:57;;;;;;;31.40;14.95;;;2.10;99.90;;;;;;4986648;28;20046;-85
2022/12/11 08:46:27;;;;;;;32.03;15.55;;;2.10;99.90;;;;;;4993929;28;20414;-85
2022/12/11 08:48:53;;;;;;;29.88;15.05;;;2.10;99.90;;;;;;4979233;28;20030;-86
2022/12/11 08:51:22;;;;;;;31.20;15.73;;;2.00;99.90;;;;;;4995996;28;20026;-85
2022/12/11 08:53:48;;;;;;;32.40;15.40;;;2.00;99.90;;;;;;4997068;28;20022;-85
2022/12/11 08:56:18;;;;;;;29.92;15.45;;;1.90;99.90;;;;;;4998895;28;20066;-85
2022/12/11 08:58:44;;;;;;;30.60;14.40;;;2.00;99.90;;;;;;4995144;28;20022;-86
2022/12/11 09:01:12;;;;;;;26.90;14.07;;;2.00;99.90;;;;;;4978415;28;20035;-85
2022/12/11 09:03:39;;;;;;;34.65;16.30;;;2.00;99.90;;;;;;5011021;28;20031;-86
2022/12/11 09:06:07;;;;;;;28.08;15.00;;;2.00;99.90;;;;;;4994305;28;20034;-87
2022/12/11 09:08:33;;;;;;;27.75;14.50;;;2.00;99.90;;;;;;4994578;28;20022;-88
2022/12/11 09:11:08;;;;;;;27.58;14.55;;;2.10;99.90;;;;;;4994213;28;20053;-86
2022/12/11 09:13:33;;;;;;;30.75;14.75;;;2.10;99.90;;;;;;5005442;28;20058;-86
2022/12/11 09:15:59;;;;;;;30.08;15.02;;;2.10;99.90;;;;;;4944919;28;20031;-87
2022/12/11 09:18:25;;;;;;;27.23;13.60;;;2.10;99.90;;;;;;4993641;28;20449;-87
2022/12/11 09:21:12;;;;;;;28.77;14.80;;;2.20;99.90;;;;;;4958683;28;20062;-87
2022/12/11 09:23:38;;;;;;;31.45;15.50;;;2.20;99.90;;;;;;4975301;28;20023;-87
2022/12/11 09:26:06;;;;;;;29.00;14.82;;;2.20;99.90;;;;;;4993776;28;20023;-86
2022/12/11 09:28:32;;;;;;;27.85;14.68;;;2.20;99.90;;;;;;4978658;28;20053;-85
2022/12/11 09:30:58;;;;;;;29.02;14.60;;;2.20;99.90;;;;;;4994830;28;20034;-85
2022/12/11 09:33:24;;;;;;;35.45;15.23;;;2.20;99.90;;;;;;4962081;28;20035;-85
2022/12/11 09:36:00;;;;;;;29.20;14.30;;;2.30;99.90;;;;;;4994831;28;20026;-85
2022/12/11 09:38:28;;;;;;;26.92;13.68;;;2.30;99.90;;;;;;4994513;28;20029;-86
2022/12/11 09:40:54;;;;;;;29.05;14.82;;;2.30;99.90;;;;;;4994346;28;20022;-85
2022/12/11 09:43:42;;;;;;;29.30;14.60;;;2.30;99.90;;;;;;4978532;28;20447;-85
2022/12/11 09:46:13;;;;;;;26.55;14.02;;;2.20;99.90;;;;;;5013097;28;20066;-84
2022/12/11 09:48:42;;;;;;;26.83;14.55;;;2.30;99.90;;;;;;5015496;28;20030;-90
2022/12/11 09:51:44;;;;;;;26.95;13.85;;;2.30;99.90;;;;;;5004042;28;20065;-85
2022/12/11 09:54:13;;;;;;;27.40;13.90;;;2.30;99.90;;;;;;4995341;28;20042;-85
2022/12/11 09:56:44;;;;;;;27.88;13.45;;;2.30;99.90;;;;;;4994389;28;20023;-85
2022/12/11 09:59:16;;;;;;;25.83;13.43;;;2.30;99.90;;;;;;4997845;28;20022;-85
2022/12/11 10:02:22;;;;;;;30.08;13.95;;;2.30;99.90;;;;;;4998447;28;20026;-86
2022/12/11 10:04:56;;;;;;;29.30;14.82;;;2.30;99.90;;;;;;5007409;28;20497;-85
2022/12/11 10:07:40;;;;;;;29.40;14.18;;;2.30;99.90;;;;;;5009835;28;20042;-86
2022/12/11 10:10:06;;;;;;;25.90;13.90;;;2.30;99.90;;;;;;5009604;28;20118;-86
2022/12/11 10:12:36;;;;;;;31.92;13.95;;;2.30;99.90;;;;;;5006835;28;20050;-86
2022/12/11 10:15:08;;;;;;;24.85;14.27;;;2.30;99.90;;;;;;4998414;28;20033;-86
2022/12/11 10:17:36;;;;;;;28.48;14.85;;;2.30;99.90;;;;;;4997987;28;20030;-86
2022/12/11 10:20:23;;;;;;;23.48;13.98;;;2.30;99.90;;;;;;4981564;28;20026;-86
2022/12/11 10:22:50;;;;;;;25.83;14.85;;;2.30;99.90;;;;;;4998003;28;20414;-86
2022/12/11 10:25:24;;;;;;;29.38;15.27;;;2.30;99.90;;;;;;4981627;28;20064;-86
2022/12/11 10:27:50;;;;;;;25.73;14.43;;;2.20;99.90;;;;;;4994360;28;20597;-87
2022/12/11 10:30:39;;;;;;;27.38;15.27;;;2.30;99.90;;;;;;4980514;28;20031;-87
2022/12/11 10:33:21;;;;;;;27.70;14.45;;;2.30;99.90;;;;;;4997214;28;20038;-87
2022/12/11 10:35:53;;;;;;;27.20;14.38;;;2.30;99.90;;;;;;4996700;28;20034;-87
2022/12/11 10:38:33;;;;;;;29.58;14.85;;;2.30;99.90;;;;;;4997866;28;20037;-86
2022/12/11 10:41:04;;;;;;;29.30;16.03;;;2.40;99.90;;;;;;4997526;28;20030;-87
2022/12/11 10:43:40;;;;;;;29.08;15.98;;;2.40;99.90;;;;;;4997854;28;20544;-87
2022/12/11 10:46:15;;;;;;;26.92;14.48;;;2.30;99.90;;;;;;4997133;28;20037;-86
2022/12/11 10:48:52;;;;;;;26.98;14.88;;;2.40;99.90;;;;;;5002116;28;20057;-88
2022/12/11 10:51:22;;;;;;;28.88;15.02;;;2.30;99.90;;;;;;5001458;28;20106;-88
2022/12/11 10:53:51;;;;;;;26.80;15.13;;;2.30;99.90;;;;;;5002588;28;20034;-89
2022/12/11 10:56:27;;;;;;;29.13;15.32;;;2.30;99.90;;;;;;5001508;28;20034;-89
2022/12/11 10:58:55;;;;;;;31.13;16.35;;;2.30;99.90;;;;;;4998690;28;20043;-90
2022/12/11 11:01:24;;;;;;;28.17;16.17;;;2.30;99.90;;;;;;4983753;28;20053;-89
2022/12/11 11:04:00;;;;;;;28.65;14.73;;;2.30;99.90;;;;;;5000903;28;20031;-88
2022/12/11 11:06:26;;;;;;;27.17;15.32;;;2.30;99.90;;;;;;4998453;28;20037;-89
2022/12/11 11:08:55;;;;;;;29.75;16.75;;;2.40;99.90;;;;;;4996665;28;20077;-88
2022/12/11 11:11:31;;;;;;;32.13;17.95;;;2.30;99.90;;;;;;5015053;28;20479;-88
2022/12/11 11:14:11;;;;;;;31.25;17.17;;;2.30;99.90;;;;;;5017939;28;20029;-88
2022/12/11 11:16:38;;;;;;;32.25;18.27;;;2.30;99.90;;;;;;5019389;28;20029;-89
2022/12/11 11:19:05;;;;;;;30.55;16.92;;;2.30;99.90;;;;;;5016835;28;20407;-88
2022/12/11 11:21:33;;;;;;;31.20;17.83;;;2.30;99.90;;;;;;5016251;28;20026;-89
2022/12/11 11:23:59;;;;;;;32.80;17.55;;;2.30;99.90;;;;;;5015729;28;20026;-89
2022/12/11 11:26:25;;;;;;;32.72;17.83;;;2.30;99.90;;;;;;4999850;28;20040;-87
2022/12/11 11:28:55;;;;;;;34.35;18.45;;;2.30;99.90;;;;;;5016956;28;20030;-90
2022/12/11 11:31:31;;;;;;;33.03;18.08;;;2.30;99.90;;;;;;5015553;28;20033;-87
2022/12/11 11:34:02;;;;;;;28.90;16.77;;;2.30;99.90;;;;;;5015462;28;20026;-88
2022/12/11 11:36:31;;;;;;;31.92;17.33;;;2.30;99.90;;;;;;5015661;28;20022;-86
2022/12/11 11:39:32;;;;;;;32.13;17.17;;;2.30;99.90;;;;;;5016473;28;20033;-85
2022/12/11 11:42:02;;;;;;;31.75;16.60;;;2.40;99.90;;;;;;5011170;28;20085;-86
2022/12/11 11:44:56;;;;;;;29.70;15.85;;;2.40;99.90;;;;;;4991705;28;20023;-86
2022/12/11 11:47:29;;;;;;;29.85;16.70;;;2.30;99.90;;;;;;5009904;28;20036;-85
2022/12/11 11:50:23;;;;;;;28.83;15.93;;;2.30;99.90;;;;;;4995200;28;20521;-86
2022/12/11 11:53:04;;;;;;;30.98;15.88;;;2.30;99.90;;;;;;4984879;28;20069;-85
2022/12/11 11:55:49;;;;;;;;;;;2.30;99.90;;;;;;4996190;28;20029;-85
2022/12/11 11:58:21;;;;;;;27.77;15.05;;;2.20;99.90;;;;;;4996269;28;19905;-84
2022/12/11 12:00:49;;;;;;;31.42;15.90;;;2.20;99.90;;;;;;4994808;28;20492;-86
2022/12/11 12:03:17;;;;;;;30.00;15.18;;;2.20;99.90;;;;;;4991078;28;20019;-86
2022/12/11 12:05:54;;;;;;;31.13;16.48;;;2.20;99.90;;;;;;4989435;28;20027;-87
2022/12/11 12:08:37;;;;;;;29.48;15.35;;;2.20;99.90;;;;;;5009666;28;20022;-86
2022/12/11 12:11:24;;;;;;;32.40;15.30;;;2.20;99.90;;;;;;5011507;28;20113;-88
2022/12/11 12:14:14;;;;;;;30.85;15.18;;;2.30;99.90;;;;;;4997778;28;20027;-86
2022/12/11 12:16:58;;;;;;;29.13;14.27;;;2.20;99.90;;;;;;4990537;28;20030;-86
2022/12/11 12:20:16;;;;;;;32.15;16.13;;;2.20;99.90;;;;;;4977497;28;20469;-85
2022/12/11 12:23:16;;;;;;;30.35;15.35;;;2.20;99.90;;;;;;4986979;28;20053;-87
2022/12/11 12:26:07;;;;;;;31.27;15.68;;;2.20;99.90;;;;;;5012992;28;20023;-85
2022/12/11 12:28:53;;;;;;;31.60;16.45;;;2.20;99.90;;;;;;4993844;28;20030;-87
2022/12/11 12:31:52;;;;;;;30.10;15.38;;;2.20;99.90;;;;;;4994263;28;20049;-85
2022/12/11 12:34:44;;;;;;;30.58;16.00;;;2.20;99.90;;;;;;4987188;28;20038;-86
2022/12/11 12:37:29;;;;;;;33.08;16.85;;;2.20;99.90;;;;;;4988882;28;20022;-86
2022/12/11 12:40:23;;;;;;;29.48;14.93;;;2.20;99.90;;;;;;4993964;28;20035;-84
2022/12/11 12:43:28;;;;;;;33.88;16.30;;;2.30;99.90;;;;;;4993705;28;20030;-85
2022/12/11 12:46:13;;;;;;;34.47;15.65;;;2.30;99.90;;;;;;4974172;28;20035;-85
2022/12/11 12:48:39;;;;;;;29.15;15.13;;;2.30;99.90;;;;;;4992624;28;20031;-85
2022/12/11 12:51:05;;;;;;;32.88;16.08;;;2.30;99.90;;;;;;4977265;28;20032;-85
2022/12/11 12:53:35;;;;;;;31.08;15.77;;;2.30;99.90;;;;;;4991445;28;20033;-85
2022/12/11 12:56:03;;;;;;;32.03;15.60;;;2.30;99.90;;;;;;4993459;28;20064;-85
2022/12/11 12:58:38;;;;;;;29.40;15.13;;;2.30;99.90;;;;;;4994567;28;20245;-85
2022/12/11 13:01:13;;;;;;;32.33;16.27;;;2.30;99.90;;;;;;5002577;28;20022;-85